sensor_id;sensor_type;location;lat;lon;timestamp;P1;durP1;ratioP1;P2;durP2;ratioP2
50976;SDS011;36992;48.200;12.418;2023-09-12T00:00:04;6.03;;;3.42;;
50976;SDS011;36992;48.200;12.418;2023-09-12T00:02:32;4.75;;;3.50;;
50976;SDS011;36992;48.200;12.418;2023-09-12T00:04:58;4.47;;;3.10;;
50976;SDS011;36992;48.200;12.418;2023-09-12T00:07:25;5.05;;;3.17;;
50976;SDS011;36992;48.200;12.418;2023-09-12T00:09:51;3.95;;;2.83;;
50976;SDS011;36992;48.200;12.418;2023-09-12T00:12:18;3.65;;;2.70;;
50976;SDS011;36992;48.200;12.418;2023-09-12T00:14:50;3.88;;;2.97;;
50976;SDS011;36992;48.200;12.418;2023-09-12T00:17:17;5.35;;;3.33;;
50976;SDS011;36992;48.200;12.418;2023-09-12T00:19:43;4.22;;;3.00;;
50976;SDS011;36992;48.200;12.418;2023-09-12T00:22:10;3.38;;;2.75;;
50976;SDS011;36992;48.200;12.418;2023-09-12T00:24:36;5.25;;;3.13;;
50976;SDS011;36992;48.200;12.418;2023-09-12T00:27:04;4.35;;;3.22;;
50976;SDS011;36992;48.200;12.418;2023-09-12T00:29:31;5.85;;;3.15;;
50976;SDS011;36992;48.200;12.418;2023-09-12T00:31:58;6.10;;;2.72;;
50976;SDS011;36992;48.200;12.418;2023-09-12T00:34:25;3.65;;;3.00;;
50976;SDS011;36992;48.200;12.418;2023-09-12T00:36:51;3.72;;;2.80;;
50976;SDS011;36992;48.200;12.418;2023-09-12T00:39:18;5.32;;;2.70;;
50976;SDS011;36992;48.200;12.418;2023-09-12T00:41:44;4.95;;;2.80;;
50976;SDS011;36992;48.200;12.418;2023-09-12T00:44:11;4.70;;;2.88;;
50976;SDS011;36992;48.200;12.418;2023-09-12T00:46:37;3.22;;;2.65;;
50976;SDS011;36992;48.200;12.418;2023-09-12T00:49:07;4.38;;;3.00;;
50976;SDS011;36992;48.200;12.418;2023-09-12T00:51:35;4.07;;;2.97;;
50976;SDS011;36992;48.200;12.418;2023-09-12T00:54:02;4.15;;;3.20;;
50976;SDS011;36992;48.200;12.418;2023-09-12T00:56:29;5.45;;;3.03;;
50976;SDS011;36992;48.200;12.418;2023-09-12T00:58:56;5.03;;;3.25;;
50976;SDS011;36992;48.200;12.418;2023-09-12T01:01:23;6.65;;;2.88;;
50976;SDS011;36992;48.200;12.418;2023-09-12T01:03:50;4.30;;;3.33;;
50976;SDS011;36992;48.200;12.418;2023-09-12T01:06:18;4.00;;;2.75;;
50976;SDS011;36992;48.200;12.418;2023-09-12T01:08:46;3.63;;;2.70;;
50976;SDS011;36992;48.200;12.418;2023-09-12T01:11:13;4.43;;;3.35;;
50976;SDS011;36992;48.200;12.418;2023-09-12T01:13:40;4.65;;;3.08;;
50976;SDS011;36992;48.200;12.418;2023-09-12T01:16:07;4.22;;;3.05;;
50976;SDS011;36992;48.200;12.418;2023-09-12T01:18:33;3.95;;;3.30;;
50976;SDS011;36992;48.200;12.418;2023-09-12T01:21:14;3.85;;;3.03;;
50976;SDS011;36992;48.200;12.418;2023-09-12T01:24:07;5.30;;;2.55;;
50976;SDS011;36992;48.200;12.418;2023-09-12T01:29:23;3.80;;;2.58;;
50976;SDS011;36992;48.200;12.418;2023-09-12T01:31:51;4.40;;;2.72;;
50976;SDS011;36992;48.200;12.418;2023-09-12T01:34:19;4.38;;;3.40;;
50976;SDS011;36992;48.200;12.418;2023-09-12T01:36:46;7.47;;;3.45;;
50976;SDS011;36992;48.200;12.418;2023-09-12T01:39:12;4.07;;;3.17;;
50976;SDS011;36992;48.200;12.418;2023-09-12T01:41:40;5.32;;;2.92;;
50976;SDS011;36992;48.200;12.418;2023-09-12T01:44:07;4.35;;;3.17;;
50976;SDS011;36992;48.200;12.418;2023-09-12T01:46:36;3.95;;;3.45;;
50976;SDS011;36992;48.200;12.418;2023-09-12T01:49:04;4.03;;;2.97;;
50976;SDS011;36992;48.200;12.418;2023-09-12T01:51:32;4.07;;;3.05;;
50976;SDS011;36992;48.200;12.418;2023-09-12T01:53:59;3.75;;;2.72;;
50976;SDS011;36992;48.200;12.418;2023-09-12T01:56:26;4.50;;;2.67;;
50976;SDS011;36992;48.200;12.418;2023-09-12T01:58:55;5.25;;;2.42;;
50976;SDS011;36992;48.200;12.418;2023-09-12T02:01:22;4.20;;;2.65;;
50976;SDS011;36992;48.200;12.418;2023-09-12T02:03:53;3.80;;;2.60;;
50976;SDS011;36992;48.200;12.418;2023-09-12T02:06:19;3.60;;;2.83;;
50976;SDS011;36992;48.200;12.418;2023-09-12T02:08:46;4.00;;;2.95;;
50976;SDS011;36992;48.200;12.418;2023-09-12T02:11:12;4.18;;;2.97;;
50976;SDS011;36992;48.200;12.418;2023-09-12T02:13:39;3.30;;;2.42;;
50976;SDS011;36992;48.200;12.418;2023-09-12T02:16:05;5.70;;;2.67;;
50976;SDS011;36992;48.200;12.418;2023-09-12T02:18:32;2.90;;;2.30;;
50976;SDS011;36992;48.200;12.418;2023-09-12T02:21:00;4.15;;;2.83;;
50976;SDS011;36992;48.200;12.418;2023-09-12T02:23:27;5.43;;;3.33;;
50976;SDS011;36992;48.200;12.418;2023-09-12T02:25:53;4.00;;;2.95;;
50976;SDS011;36992;48.200;12.418;2023-09-12T02:28:21;5.40;;;3.78;;
50976;SDS011;36992;48.200;12.418;2023-09-12T02:30:48;3.72;;;2.78;;
50976;SDS011;36992;48.200;12.418;2023-09-12T02:33:14;3.53;;;2.30;;
50976;SDS011;36992;48.200;12.418;2023-09-12T02:35:41;4.03;;;2.85;;
50976;SDS011;36992;48.200;12.418;2023-09-12T02:38:09;4.13;;;2.67;;
50976;SDS011;36992;48.200;12.418;2023-09-12T02:40:35;5.38;;;3.15;;
50976;SDS011;36992;48.200;12.418;2023-09-12T02:43:02;3.65;;;2.67;;
50976;SDS011;36992;48.200;12.418;2023-09-12T02:45:28;3.00;;;2.20;;
50976;SDS011;36992;48.200;12.418;2023-09-12T02:47:55;3.72;;;2.30;;
50976;SDS011;36992;48.200;12.418;2023-09-12T02:50:21;3.78;;;2.40;;
50976;SDS011;36992;48.200;12.418;2023-09-12T02:52:48;4.72;;;3.30;;
50976;SDS011;36992;48.200;12.418;2023-09-12T02:55:16;4.78;;;2.88;;
50976;SDS011;36992;48.200;12.418;2023-09-12T02:57:42;4.15;;;2.97;;
50976;SDS011;36992;48.200;12.418;2023-09-12T03:00:09;3.97;;;2.72;;
50976;SDS011;36992;48.200;12.418;2023-09-12T03:02:36;3.40;;;2.65;;
50976;SDS011;36992;48.200;12.418;2023-09-12T03:05:03;3.72;;;2.35;;
50976;SDS011;36992;48.200;12.418;2023-09-12T03:07:30;4.93;;;3.30;;
50976;SDS011;36992;48.200;12.418;2023-09-12T03:09:57;3.42;;;2.40;;
50976;SDS011;36992;48.200;12.418;2023-09-12T03:12:24;3.72;;;2.55;;
50976;SDS011;36992;48.200;12.418;2023-09-12T03:14:51;4.85;;;3.10;;
50976;SDS011;36992;48.200;12.418;2023-09-12T03:17:17;4.47;;;2.80;;
50976;SDS011;36992;48.200;12.418;2023-09-12T03:19:44;4.13;;;3.05;;
50976;SDS011;36992;48.200;12.418;2023-09-12T03:22:10;4.65;;;3.10;;
50976;SDS011;36992;48.200;12.418;2023-09-12T03:24:38;4.75;;;2.90;;
50976;SDS011;36992;48.200;12.418;2023-09-12T03:27:05;4.18;;;3.00;;
50976;SDS011;36992;48.200;12.418;2023-09-12T03:29:32;3.97;;;3.03;;
50976;SDS011;36992;48.200;12.418;2023-09-12T03:31:59;4.15;;;2.72;;
50976;SDS011;36992;48.200;12.418;2023-09-12T03:34:25;3.85;;;2.85;;
50976;SDS011;36992;48.200;12.418;2023-09-12T03:36:52;3.92;;;2.80;;
50976;SDS011;36992;48.200;12.418;2023-09-12T03:39:18;3.38;;;2.55;;
50976;SDS011;36992;48.200;12.418;2023-09-12T03:41:45;5.03;;;2.47;;
50976;SDS011;36992;48.200;12.418;2023-09-12T03:44:11;6.38;;;3.95;;
50976;SDS011;36992;48.200;12.418;2023-09-12T03:46:39;4.13;;;2.33;;
50976;SDS011;36992;48.200;12.418;2023-09-12T03:49:06;3.20;;;2.35;;
50976;SDS011;36992;48.200;12.418;2023-09-12T03:51:33;3.63;;;2.45;;
50976;SDS011;36992;48.200;12.418;2023-09-12T03:53:59;3.08;;;2.35;;
50976;SDS011;36992;48.200;12.418;2023-09-12T03:56:26;4.70;;;2.83;;
50976;SDS011;36992;48.200;12.418;2023-09-12T03:58:52;4.72;;;3.08;;
50976;SDS011;36992;48.200;12.418;2023-09-12T04:01:22;4.45;;;2.75;;
50976;SDS011;36992;48.200;12.418;2023-09-12T04:03:50;5.00;;;2.70;;
50976;SDS011;36992;48.200;12.418;2023-09-12T04:06:17;3.45;;;2.63;;
50976;SDS011;36992;48.200;12.418;2023-09-12T04:08:43;4.95;;;2.75;;
50976;SDS011;36992;48.200;12.418;2023-09-12T04:11:10;4.13;;;2.63;;
50976;SDS011;36992;48.200;12.418;2023-09-12T04:13:36;5.75;;;2.70;;
50976;SDS011;36992;48.200;12.418;2023-09-12T04:16:03;4.43;;;2.60;;
50976;SDS011;36992;48.200;12.418;2023-09-12T04:18:30;4.15;;;3.00;;
50976;SDS011;36992;48.200;12.418;2023-09-12T04:20:57;4.57;;;2.53;;
50976;SDS011;36992;48.200;12.418;2023-09-12T04:23:24;4.38;;;2.83;;
50976;SDS011;36992;48.200;12.418;2023-09-12T04:25:51;4.30;;;2.72;;
50976;SDS011;36992;48.200;12.418;2023-09-12T04:28:17;3.60;;;2.67;;
50976;SDS011;36992;48.200;12.418;2023-09-12T04:30:44;4.57;;;2.85;;
50976;SDS011;36992;48.200;12.418;2023-09-12T04:33:10;4.50;;;2.90;;
50976;SDS011;36992;48.200;12.418;2023-09-12T04:35:37;4.55;;;2.58;;
50976;SDS011;36992;48.200;12.418;2023-09-12T04:38:05;4.28;;;2.92;;
50976;SDS011;36992;48.200;12.418;2023-09-12T04:40:32;5.25;;;3.00;;
50976;SDS011;36992;48.200;12.418;2023-09-12T04:42:58;4.13;;;2.97;;
50976;SDS011;36992;48.200;12.418;2023-09-12T04:45:25;3.83;;;3.00;;
50976;SDS011;36992;48.200;12.418;2023-09-12T04:47:51;4.57;;;2.70;;
50976;SDS011;36992;48.200;12.418;2023-09-12T04:50:18;4.03;;;2.85;;
50976;SDS011;36992;48.200;12.418;2023-09-12T04:52:44;4.95;;;3.25;;
50976;SDS011;36992;48.200;12.418;2023-09-12T04:55:12;6.47;;;3.10;;
50976;SDS011;36992;48.200;12.418;2023-09-12T04:57:39;7.40;;;3.03;;
50976;SDS011;36992;48.200;12.418;2023-09-12T05:00:06;6.38;;;3.33;;
50976;SDS011;36992;48.200;12.418;2023-09-12T05:02:33;7.13;;;3.47;;
50976;SDS011;36992;48.200;12.418;2023-09-12T05:04:59;6.68;;;3.13;;
50976;SDS011;36992;48.200;12.418;2023-09-12T05:07:26;12.68;;;3.78;;
50976;SDS011;36992;48.200;12.418;2023-09-12T05:09:52;9.48;;;3.25;;
50976;SDS011;36992;48.200;12.418;2023-09-12T05:12:20;4.70;;;3.10;;
50976;SDS011;36992;48.200;12.418;2023-09-12T05:14:47;5.80;;;3.80;;
50976;SDS011;36992;48.200;12.418;2023-09-12T05:17:13;6.28;;;3.20;;
50976;SDS011;36992;48.200;12.418;2023-09-12T05:19:40;4.25;;;2.67;;
50976;SDS011;36992;48.200;12.418;2023-09-12T05:22:06;3.88;;;2.58;;
50976;SDS011;36992;48.200;12.418;2023-09-12T05:24:33;3.85;;;2.90;;
50976;SDS011;36992;48.200;12.418;2023-09-12T05:26:59;5.60;;;3.50;;
50976;SDS011;36992;48.200;12.418;2023-09-12T05:29:27;4.75;;;3.20;;
50976;SDS011;36992;48.200;12.418;2023-09-12T05:31:53;5.25;;;3.38;;
50976;SDS011;36992;48.200;12.418;2023-09-12T05:34:20;5.30;;;2.95;;
50976;SDS011;36992;48.200;12.418;2023-09-12T05:36:47;4.43;;;2.92;;
50976;SDS011;36992;48.200;12.418;2023-09-12T05:39:13;3.50;;;2.50;;
50976;SDS011;36992;48.200;12.418;2023-09-12T05:41:40;4.20;;;2.28;;
50976;SDS011;36992;48.200;12.418;2023-09-12T05:44:06;2.63;;;1.83;;
50976;SDS011;36992;48.200;12.418;2023-09-12T05:46:34;3.75;;;2.22;;
50976;SDS011;36992;48.200;12.418;2023-09-12T05:49:00;4.68;;;2.55;;
50976;SDS011;36992;48.200;12.418;2023-09-12T05:51:28;3.88;;;2.33;;
50976;SDS011;36992;48.200;12.418;2023-09-12T05:53:54;4.82;;;2.55;;
50976;SDS011;36992;48.200;12.418;2023-09-12T05:56:21;5.10;;;2.08;;
50976;SDS011;36992;48.200;12.418;2023-09-12T05:58:48;3.35;;;2.20;;
50976;SDS011;36992;48.200;12.418;2023-09-12T06:01:15;2.63;;;1.75;;
50976;SDS011;36992;48.200;12.418;2023-09-12T06:03:43;5.28;;;2.28;;
50976;SDS011;36992;48.200;12.418;2023-09-12T06:06:10;5.15;;;2.20;;
50976;SDS011;36992;48.200;12.418;2023-09-12T06:08:36;5.32;;;2.42;;
50976;SDS011;36992;48.200;12.418;2023-09-12T06:11:03;4.40;;;2.47;;
50976;SDS011;36992;48.200;12.418;2023-09-12T06:13:30;3.28;;;2.30;;
50976;SDS011;36992;48.200;12.418;2023-09-12T06:15:57;4.35;;;2.65;;
50976;SDS011;36992;48.200;12.418;2023-09-12T06:18:24;4.22;;;2.55;;
50976;SDS011;36992;48.200;12.418;2023-09-12T06:20:54;3.75;;;2.47;;
50976;SDS011;36992;48.200;12.418;2023-09-12T06:23:21;4.20;;;2.13;;
50976;SDS011;36992;48.200;12.418;2023-09-12T06:25:48;4.35;;;2.90;;
50976;SDS011;36992;48.200;12.418;2023-09-12T06:28:24;5.18;;;2.88;;
50976;SDS011;36992;48.200;12.418;2023-09-12T06:30:51;6.13;;;3.00;;
50976;SDS011;36992;48.200;12.418;2023-09-12T06:33:17;7.18;;;3.75;;
50976;SDS011;36992;48.200;12.418;2023-09-12T06:35:47;5.63;;;3.92;;
50976;SDS011;36992;48.200;12.418;2023-09-12T06:38:16;6.65;;;3.88;;
50976;SDS011;36992;48.200;12.418;2023-09-12T06:40:42;4.18;;;3.38;;
50976;SDS011;36992;48.200;12.418;2023-09-12T06:43:09;4.63;;;3.15;;
50976;SDS011;36992;48.200;12.418;2023-09-12T06:45:36;5.70;;;3.38;;
50976;SDS011;36992;48.200;12.418;2023-09-12T06:48:03;4.63;;;3.22;;
50976;SDS011;36992;48.200;12.418;2023-09-12T06:50:30;4.68;;;3.08;;
50976;SDS011;36992;48.200;12.418;2023-09-12T06:52:56;4.15;;;3.30;;
50976;SDS011;36992;48.200;12.418;2023-09-12T06:55:24;6.60;;;5.30;;
50976;SDS011;36992;48.200;12.418;2023-09-12T06:57:51;6.75;;;4.65;;
50976;SDS011;36992;48.200;12.418;2023-09-12T07:00:18;7.38;;;4.80;;
50976;SDS011;36992;48.200;12.418;2023-09-12T07:02:45;7.07;;;5.07;;
50976;SDS011;36992;48.200;12.418;2023-09-12T07:05:11;6.43;;;5.15;;
50976;SDS011;36992;48.200;12.418;2023-09-12T07:07:38;6.88;;;4.22;;
50976;SDS011;36992;48.200;12.418;2023-09-12T07:10:05;4.50;;;3.80;;
50976;SDS011;36992;48.200;12.418;2023-09-12T07:12:33;4.47;;;3.80;;
50976;SDS011;36992;48.200;12.418;2023-09-12T07:15:00;5.35;;;3.65;;
50976;SDS011;36992;48.200;12.418;2023-09-12T07:17:27;5.47;;;3.80;;
50976;SDS011;36992;48.200;12.418;2023-09-12T07:19:53;4.57;;;3.58;;
50976;SDS011;36992;48.200;12.418;2023-09-12T07:22:20;5.75;;;3.70;;
50976;SDS011;36992;48.200;12.418;2023-09-12T07:24:46;6.13;;;4.18;;
50976;SDS011;36992;48.200;12.418;2023-09-12T07:27:13;6.63;;;4.82;;
50976;SDS011;36992;48.200;12.418;2023-09-12T07:29:41;5.72;;;4.18;;
50976;SDS011;36992;48.200;12.418;2023-09-12T07:32:07;6.85;;;3.42;;
50976;SDS011;36992;48.200;12.418;2023-09-12T07:34:34;5.35;;;4.30;;
50976;SDS011;36992;48.200;12.418;2023-09-12T07:37:02;7.10;;;4.63;;
50976;SDS011;36992;48.200;12.418;2023-09-12T07:39:29;5.55;;;3.55;;
50976;SDS011;36992;48.200;12.418;2023-09-12T07:41:56;6.38;;;4.45;;
50976;SDS011;36992;48.200;12.418;2023-09-12T07:44:22;6.93;;;4.10;;
50976;SDS011;36992;48.200;12.418;2023-09-12T07:46:50;7.82;;;4.20;;
50976;SDS011;36992;48.200;12.418;2023-09-12T07:49:17;5.30;;;3.80;;
50976;SDS011;36992;48.200;12.418;2023-09-12T07:51:43;6.82;;;4.22;;
50976;SDS011;36992;48.200;12.418;2023-09-12T07:54:10;6.72;;;4.32;;
50976;SDS011;36992;48.200;12.418;2023-09-12T07:56:36;5.18;;;3.80;;
50976;SDS011;36992;48.200;12.418;2023-09-12T07:59:03;7.63;;;5.07;;
50976;SDS011;36992;48.200;12.418;2023-09-12T08:01:29;6.38;;;4.85;;
50976;SDS011;36992;48.200;12.418;2023-09-12T08:03:57;5.85;;;4.13;;
50976;SDS011;36992;48.200;12.418;2023-09-12T08:06:24;6.93;;;4.70;;
50976;SDS011;36992;48.200;12.418;2023-09-12T08:08:50;6.55;;;4.13;;
50976;SDS011;36992;48.200;12.418;2023-09-12T08:11:17;6.18;;;4.03;;
50976;SDS011;36992;48.200;12.418;2023-09-12T08:13:45;7.10;;;4.80;;
50976;SDS011;36992;48.200;12.418;2023-09-12T08:16:14;5.28;;;4.03;;
50976;SDS011;36992;48.200;12.418;2023-09-12T08:18:41;5.25;;;4.28;;
50976;SDS011;36992;48.200;12.418;2023-09-12T08:21:09;8.32;;;5.80;;
50976;SDS011;36992;48.200;12.418;2023-09-12T08:23:36;8.35;;;5.35;;
50976;SDS011;36992;48.200;12.418;2023-09-12T08:26:02;7.05;;;5.15;;
50976;SDS011;36992;48.200;12.418;2023-09-12T08:28:30;7.43;;;5.05;;
50976;SDS011;36992;48.200;12.418;2023-09-12T08:30:56;16.27;;;5.53;;
50976;SDS011;36992;48.200;12.418;2023-09-12T08:33:23;6.57;;;4.38;;
50976;SDS011;36992;48.200;12.418;2023-09-12T08:35:49;6.68;;;4.95;;
50976;SDS011;36992;48.200;12.418;2023-09-12T08:38:17;6.72;;;5.43;;
50976;SDS011;36992;48.200;12.418;2023-09-12T08:40:47;5.40;;;4.32;;
50976;SDS011;36992;48.200;12.418;2023-09-12T08:43:15;5.47;;;3.97;;
50976;SDS011;36992;48.200;12.418;2023-09-12T08:45:42;6.68;;;4.50;;
50976;SDS011;36992;48.200;12.418;2023-09-12T08:48:09;5.38;;;4.10;;
50976;SDS011;36992;48.200;12.418;2023-09-12T08:50:37;6.07;;;4.55;;
50976;SDS011;36992;48.200;12.418;2023-09-12T08:53:03;7.35;;;4.78;;
50976;SDS011;36992;48.200;12.418;2023-09-12T08:55:32;6.65;;;4.45;;
50976;SDS011;36992;48.200;12.418;2023-09-12T08:58:00;6.43;;;3.97;;
50976;SDS011;36992;48.200;12.418;2023-09-12T09:00:29;6.18;;;4.20;;
50976;SDS011;36992;48.200;12.418;2023-09-12T09:02:56;5.40;;;4.43;;
50976;SDS011;36992;48.200;12.418;2023-09-12T09:05:23;5.38;;;4.10;;
50976;SDS011;36992;48.200;12.418;2023-09-12T09:07:51;6.45;;;4.30;;
50976;SDS011;36992;48.200;12.418;2023-09-12T09:10:18;4.53;;;3.63;;
50976;SDS011;36992;48.200;12.418;2023-09-12T09:12:47;6.88;;;3.75;;
50976;SDS011;36992;48.200;12.418;2023-09-12T09:15:19;8.18;;;3.50;;
50976;SDS011;36992;48.200;12.418;2023-09-12T09:17:47;6.60;;;4.30;;
50976;SDS011;36992;48.200;12.418;2023-09-12T09:20:21;6.90;;;4.05;;
50976;SDS011;36992;48.200;12.418;2023-09-12T09:22:55;4.97;;;3.60;;
50976;SDS011;36992;48.200;12.418;2023-09-12T09:25:25;7.20;;;3.88;;
50976;SDS011;36992;48.200;12.418;2023-09-12T09:27:53;7.75;;;4.28;;
50976;SDS011;36992;48.200;12.418;2023-09-12T09:30:28;5.53;;;3.75;;
50976;SDS011;36992;48.200;12.418;2023-09-12T09:33:05;6.93;;;3.90;;
50976;SDS011;36992;48.200;12.418;2023-09-12T09:35:32;5.05;;;3.40;;
50976;SDS011;36992;48.200;12.418;2023-09-12T09:37:58;5.28;;;3.28;;
50976;SDS011;36992;48.200;12.418;2023-09-12T09:40:25;4.85;;;3.50;;
50976;SDS011;36992;48.200;12.418;2023-09-12T09:42:54;5.88;;;3.58;;
50976;SDS011;36992;48.200;12.418;2023-09-12T09:45:22;7.97;;;4.00;;
50976;SDS011;36992;48.200;12.418;2023-09-12T09:47:49;10.95;;;4.25;;
50976;SDS011;36992;48.200;12.418;2023-09-12T09:50:16;5.90;;;3.53;;
50976;SDS011;36992;48.200;12.418;2023-09-12T09:52:43;5.00;;;3.75;;
50976;SDS011;36992;48.200;12.418;2023-09-12T09:55:12;4.32;;;3.80;;
50976;SDS011;36992;48.200;12.418;2023-09-12T09:57:39;5.72;;;4.25;;
50976;SDS011;36992;48.200;12.418;2023-09-12T10:00:08;7.18;;;3.20;;
50976;SDS011;36992;48.200;12.418;2023-09-12T10:02:40;7.00;;;3.63;;
50976;SDS011;36992;48.200;12.418;2023-09-12T10:05:07;4.55;;;3.25;;
50976;SDS011;36992;48.200;12.418;2023-09-12T10:07:36;6.00;;;3.90;;
50976;SDS011;36992;48.200;12.418;2023-09-12T10:10:04;5.32;;;3.75;;
50976;SDS011;36992;48.200;12.418;2023-09-12T10:12:31;5.53;;;3.47;;
50976;SDS011;36992;48.200;12.418;2023-09-12T10:15:01;6.93;;;3.30;;
50976;SDS011;36992;48.200;12.418;2023-09-12T10:17:34;4.75;;;3.25;;
50976;SDS011;36992;48.200;12.418;2023-09-12T10:20:03;4.47;;;3.33;;
50976;SDS011;36992;48.200;12.418;2023-09-12T10:22:35;4.47;;;3.28;;
50976;SDS011;36992;48.200;12.418;2023-09-12T10:25:05;4.28;;;2.97;;
50976;SDS011;36992;48.200;12.418;2023-09-12T10:27:33;5.68;;;3.33;;
50976;SDS011;36992;48.200;12.418;2023-09-12T10:30:00;4.32;;;2.85;;
50976;SDS011;36992;48.200;12.418;2023-09-12T10:32:29;5.18;;;3.90;;
50976;SDS011;36992;48.200;12.418;2023-09-12T10:34:58;4.40;;;3.25;;
50976;SDS011;36992;48.200;12.418;2023-09-12T10:37:26;4.20;;;3.08;;
50976;SDS011;36992;48.200;12.418;2023-09-12T10:39:55;5.25;;;3.40;;
50976;SDS011;36992;48.200;12.418;2023-09-12T10:42:24;4.60;;;3.65;;
50976;SDS011;36992;48.200;12.418;2023-09-12T10:44:53;5.63;;;3.10;;
50976;SDS011;36992;48.200;12.418;2023-09-12T10:47:21;4.93;;;2.78;;
50976;SDS011;36992;48.200;12.418;2023-09-12T10:49:50;4.55;;;3.55;;
50976;SDS011;36992;48.200;12.418;2023-09-12T10:52:23;4.50;;;3.13;;
50976;SDS011;36992;48.200;12.418;2023-09-12T10:54:50;3.80;;;3.22;;
50976;SDS011;36992;48.200;12.418;2023-09-12T10:57:17;4.13;;;3.63;;
50976;SDS011;36992;48.200;12.418;2023-09-12T11:02:36;4.47;;;3.13;;
50976;SDS011;36992;48.200;12.418;2023-09-12T11:05:06;5.40;;;3.33;;
50976;SDS011;36992;48.200;12.418;2023-09-12T11:07:56;4.10;;;2.90;;
50976;SDS011;36992;48.200;12.418;2023-09-12T11:10:23;3.47;;;2.63;;
50976;SDS011;36992;48.200;12.418;2023-09-12T11:12:50;4.53;;;3.42;;
50976;SDS011;36992;48.200;12.418;2023-09-12T11:15:18;3.67;;;2.75;;
50976;SDS011;36992;48.200;12.418;2023-09-12T11:17:46;4.43;;;3.25;;
50976;SDS011;36992;48.200;12.418;2023-09-12T11:20:15;4.40;;;2.72;;
50976;SDS011;36992;48.200;12.418;2023-09-12T11:22:43;5.38;;;2.65;;
50976;SDS011;36992;48.200;12.418;2023-09-12T11:25:20;4.15;;;2.85;;
50976;SDS011;36992;48.200;12.418;2023-09-12T11:28:01;3.80;;;2.42;;
50976;SDS011;36992;48.200;12.418;2023-09-12T11:30:30;3.25;;;2.55;;
50976;SDS011;36992;48.200;12.418;2023-09-12T11:32:57;3.17;;;2.38;;
50976;SDS011;36992;48.200;12.418;2023-09-12T11:35:26;3.83;;;2.45;;
50976;SDS011;36992;48.200;12.418;2023-09-12T11:37:54;3.83;;;2.42;;
50976;SDS011;36992;48.200;12.418;2023-09-12T11:40:23;4.75;;;2.22;;
50976;SDS011;36992;48.200;12.418;2023-09-12T11:42:50;2.83;;;2.08;;
50976;SDS011;36992;48.200;12.418;2023-09-12T11:45:18;3.92;;;2.15;;
50976;SDS011;36992;48.200;12.418;2023-09-12T11:47:45;4.10;;;2.38;;
50976;SDS011;36992;48.200;12.418;2023-09-12T11:50:26;3.85;;;2.03;;
50976;SDS011;36992;48.200;12.418;2023-09-12T11:53:00;3.20;;;1.73;;
50976;SDS011;36992;48.200;12.418;2023-09-12T11:55:30;3.15;;;2.20;;
50976;SDS011;36992;48.200;12.418;2023-09-12T11:57:57;3.50;;;2.17;;
50976;SDS011;36992;48.200;12.418;2023-09-12T12:00:24;5.15;;;2.20;;
50976;SDS011;36992;48.200;12.418;2023-09-12T12:02:51;2.92;;;2.10;;
50976;SDS011;36992;48.200;12.418;2023-09-12T12:05:18;2.58;;;1.98;;
50976;SDS011;36992;48.200;12.418;2023-09-12T12:07:47;4.68;;;2.05;;
50976;SDS011;36992;48.200;12.418;2023-09-12T12:10:14;3.47;;;2.22;;
50976;SDS011;36992;48.200;12.418;2023-09-12T12:12:41;3.70;;;2.08;;
50976;SDS011;36992;48.200;12.418;2023-09-12T12:15:09;3.58;;;2.45;;
50976;SDS011;36992;48.200;12.418;2023-09-12T12:17:36;4.25;;;2.47;;
50976;SDS011;36992;48.200;12.418;2023-09-12T12:20:06;2.90;;;1.90;;
50976;SDS011;36992;48.200;12.418;2023-09-12T12:22:35;3.00;;;1.80;;
50976;SDS011;36992;48.200;12.418;2023-09-12T12:25:06;3.70;;;1.92;;
50976;SDS011;36992;48.200;12.418;2023-09-12T12:27:35;4.85;;;1.98;;
50976;SDS011;36992;48.200;12.418;2023-09-12T12:30:02;2.95;;;1.88;;
50976;SDS011;36992;48.200;12.418;2023-09-12T12:32:29;3.20;;;2.08;;
50976;SDS011;36992;48.200;12.418;2023-09-12T12:34:55;2.40;;;1.65;;
50976;SDS011;36992;48.200;12.418;2023-09-12T12:37:27;4.47;;;1.90;;
50976;SDS011;36992;48.200;12.418;2023-09-12T12:39:56;3.08;;;2.05;;
50976;SDS011;36992;48.200;12.418;2023-09-12T12:42:24;2.58;;;1.73;;
50976;SDS011;36992;48.200;12.418;2023-09-12T12:44:52;2.85;;;1.75;;
50976;SDS011;36992;48.200;12.418;2023-09-12T12:47:20;2.92;;;2.13;;
50976;SDS011;36992;48.200;12.418;2023-09-12T12:49:50;3.17;;;1.90;;
50976;SDS011;36992;48.200;12.418;2023-09-12T12:52:18;3.63;;;2.28;;
50976;SDS011;36992;48.200;12.418;2023-09-12T12:54:48;3.75;;;2.58;;
50976;SDS011;36992;48.200;12.418;2023-09-12T12:57:18;3.42;;;2.10;;
50976;SDS011;36992;48.200;12.418;2023-09-12T12:59:47;4.53;;;2.38;;
50976;SDS011;36992;48.200;12.418;2023-09-12T13:02:14;2.72;;;1.65;;
50976;SDS011;36992;48.200;12.418;2023-09-12T13:04:41;3.17;;;2.05;;
50976;SDS011;36992;48.200;12.418;2023-09-12T13:07:07;5.63;;;2.63;;
50976;SDS011;36992;48.200;12.418;2023-09-12T13:09:35;3.05;;;2.20;;
50976;SDS011;36992;48.200;12.418;2023-09-12T13:12:03;3.88;;;2.03;;
50976;SDS011;36992;48.200;12.418;2023-09-12T13:14:30;2.80;;;1.75;;
50976;SDS011;36992;48.200;12.418;2023-09-12T13:16:58;2.35;;;1.67;;
50976;SDS011;36992;48.200;12.418;2023-09-12T13:19:25;3.88;;;1.75;;
50976;SDS011;36992;48.200;12.418;2023-09-12T13:21:52;2.70;;;1.52;;
50976;SDS011;36992;48.200;12.418;2023-09-12T13:24:19;2.50;;;1.42;;
50976;SDS011;36992;48.200;12.418;2023-09-12T13:26:45;3.70;;;2.13;;
50976;SDS011;36992;48.200;12.418;2023-09-12T13:29:12;2.67;;;1.73;;
50976;SDS011;36992;48.200;12.418;2023-09-12T13:31:38;3.72;;;1.52;;
50976;SDS011;36992;48.200;12.418;2023-09-12T13:34:06;2.55;;;1.55;;
50976;SDS011;36992;48.200;12.418;2023-09-12T13:36:32;2.65;;;1.63;;
50976;SDS011;36992;48.200;12.418;2023-09-12T13:38:59;4.78;;;1.88;;
50976;SDS011;36992;48.200;12.418;2023-09-12T13:41:26;3.20;;;1.70;;
50976;SDS011;36992;48.200;12.418;2023-09-12T13:43:52;5.80;;;1.77;;
50976;SDS011;36992;48.200;12.418;2023-09-12T13:46:19;2.35;;;1.73;;
50976;SDS011;36992;48.200;12.418;2023-09-12T13:48:45;2.90;;;1.98;;
50976;SDS011;36992;48.200;12.418;2023-09-12T13:51:13;2.78;;;1.58;;
50976;SDS011;36992;48.200;12.418;2023-09-12T13:53:40;4.13;;;2.35;;
50976;SDS011;36992;48.200;12.418;2023-09-12T13:56:06;3.35;;;2.10;;
50976;SDS011;36992;48.200;12.418;2023-09-12T13:58:33;2.95;;;2.17;;
50976;SDS011;36992;48.200;12.418;2023-09-12T14:01:00;5.55;;;2.35;;
50976;SDS011;36992;48.200;12.418;2023-09-12T14:03:27;6.55;;;2.35;;
50976;SDS011;36992;48.200;12.418;2023-09-12T14:05:54;3.38;;;1.80;;
50976;SDS011;36992;48.200;12.418;2023-09-12T14:08:21;4.28;;;2.10;;
50976;SDS011;36992;48.200;12.418;2023-09-12T14:10:49;2.63;;;1.77;;
50976;SDS011;36992;48.200;12.418;2023-09-12T14:13:16;3.38;;;1.95;;
50976;SDS011;36992;48.200;12.418;2023-09-12T14:15:43;2.85;;;2.05;;
50976;SDS011;36992;48.200;12.418;2023-09-12T14:18:11;3.00;;;1.85;;
50976;SDS011;36992;48.200;12.418;2023-09-12T14:20:37;3.47;;;1.95;;
50976;SDS011;36992;48.200;12.418;2023-09-12T14:23:04;3.60;;;1.80;;
50976;SDS011;36992;48.200;12.418;2023-09-12T14:25:33;3.25;;;1.90;;
50976;SDS011;36992;48.200;12.418;2023-09-12T14:27:59;3.28;;;2.10;;
50976;SDS011;36992;48.200;12.418;2023-09-12T14:30:26;3.63;;;2.50;;
50976;SDS011;36992;48.200;12.418;2023-09-12T14:32:59;5.32;;;2.40;;
50976;SDS011;36992;48.200;12.418;2023-09-12T14:35:26;4.38;;;1.95;;
50976;SDS011;36992;48.200;12.418;2023-09-12T14:37:53;3.42;;;1.88;;
50976;SDS011;36992;48.200;12.418;2023-09-12T14:40:19;3.40;;;1.85;;